الصفحة الرئيسية
METAR-TAF:

METAR-TAF

مطار :

مطار مراكش المنارة الدولي

مراكش, المغرب

دائرة عرض: 31-37N, خط طول: 008-02W, ارتفاع: 468 متر

مراقبة الطقس الحالي

تاريخ ووقت الإصدار 37 دقيقة قبل الساعة 12:30UTC
ريح 4 عقدة من الشمال الشرقي, الاتجاه يتراوح بين الشمال و الشرق
درجة الحرارة 17°درجة مئوية
الرطوبة 63%
ضغط 1026 hPa
غيوم قليلة على ارتفاع 2300 قدم

METAR: GMMX 081230Z 04004KT 360V090 FEW023 17/10 Q1026 NOSIG

زمن: 14:07 (13:07 UTC)

توقعات

تاريخ ووقت الإصدار 8ساعات و 7 دقيقة قبل الساعة 05:00UTC
التوقعات صالحة من08 الساعة 06 UTC إلى 09 الساعة 12 UTC
ريح 4 عقدة من الشرق/الجنوب الشرقي
الرؤية: 8000 متر
غيوم متفرقة على ارتفاع 2000 قدم
مؤقت
من 08 الساعة 06 UTC إلى 08 الساعة 10 UTC
الرؤية: 2000 متر
غيوم مفككة على ارتفاع 500 قدم
غشاء
مؤقت
من 08 الساعة 15 UTC إلى 08 الساعة 20 UTC
ريح 15 عقدة من الشمال/الشمال الشرقي

TAF: GMMX 080500Z 0806/0912 12004KT 8000 SCT020 TEMPO 0806/0810 2000 BR BKN005 TEMPO 0815/0820 02015KT

أرصاد الطقس والتوقعات من أكثر من 4000 مطار (تقارير الطقس للمطار METAR والتنبؤ بالطقس بالمطارTAF).

المحطات المتاحة هي النقط الصفراء والحمراء على الخريطة.

حرك المؤشر فوق النقطة لمعرفة اسم المحطة.

ثم انقر لمعرفة أرصاد وتوقعات الطقس.

لتغيير الخارطة: اضغط على الأزرار الخضراء مع رمز الصليب الأسود للتكبير. على الزر الأخضر مع شرطة للتصغير، أو على الأسهم الخضراء للخرائط المجاورة.


METAR-TAF: